Deridder, Beauregard Regional Airport (KDRI)

NameBeauregard Regional Airport
CityDeridder
CountryUnited States
ICAOKDRI
IATADRI
Altitude62 m
CoordinatesGoogle Map
Live Air TrafficLiveATC.net
METARKDRI 242155Z AUTO 19003KT 10SM CLR 27/19 A2996 RMK AO2 T02740194
2019-06-24 21:55:00 Wind: South (190°) 1.54 m/s - Visibility: 16093.4 m - Temperature: 27 °C - Dew point: 19 °C - Humidity: 61.6% - Pressure: 1014.56 hPa
Statistics

The table below shows the detailed information of all flights to/from Deridder, Beauregard Regional Airport (KDRI).